sensor_id;sensor_type;location;lat;lon;timestamp;P1;durP1;ratioP1;P2;durP2;ratioP2
31424;SDS011;18054;51.572;7.372;2022-07-23T00:00:31;31.92;;;8.85;;
31424;SDS011;18054;51.572;7.372;2022-07-23T00:03:04;39.38;;;8.70;;
31424;SDS011;18054;51.572;7.372;2022-07-23T00:05:32;30.35;;;8.00;;
31424;SDS011;18054;51.572;7.372;2022-07-23T00:08:00;30.30;;;10.27;;
31424;SDS011;18054;51.572;7.372;2022-07-23T00:10:28;28.60;;;9.35;;
31424;SDS011;18054;51.572;7.372;2022-07-23T00:12:55;31.55;;;9.15;;
31424;SDS011;18054;51.572;7.372;2022-07-23T00:15:24;28.45;;;9.45;;
31424;SDS011;18054;51.572;7.372;2022-07-23T00:17:51;26.38;;;9.38;;
31424;SDS011;18054;51.572;7.372;2022-07-23T00:20:19;37.38;;;11.60;;
31424;SDS011;18054;51.572;7.372;2022-07-23T00:22:47;27.55;;;10.77;;
31424;SDS011;18054;51.572;7.372;2022-07-23T00:25:14;26.27;;;10.35;;
31424;SDS011;18054;51.572;7.372;2022-07-23T00:27:58;25.55;;;11.23;;
31424;SDS011;18054;51.572;7.372;2022-07-23T00:32:55;20.80;;;10.95;;
31424;SDS011;18054;51.572;7.372;2022-07-23T00:35:24;35.20;;;11.05;;
31424;SDS011;18054;51.572;7.372;2022-07-23T00:37:52;27.50;;;11.38;;
31424;SDS011;18054;51.572;7.372;2022-07-23T00:40:19;22.77;;;11.50;;
31424;SDS011;18054;51.572;7.372;2022-07-23T00:42:47;29.92;;;12.70;;
31424;SDS011;18054;51.572;7.372;2022-07-23T00:45:14;30.80;;;13.48;;
31424;SDS011;18054;51.572;7.372;2022-07-23T00:47:42;33.80;;;13.48;;
31424;SDS011;18054;51.572;7.372;2022-07-23T00:50:11;21.67;;;11.00;;
31424;SDS011;18054;51.572;7.372;2022-07-23T00:52:39;30.27;;;12.85;;
31424;SDS011;18054;51.572;7.372;2022-07-23T00:55:08;24.85;;;12.98;;
31424;SDS011;18054;51.572;7.372;2022-07-23T00:57:36;29.50;;;12.75;;
31424;SDS011;18054;51.572;7.372;2022-07-23T01:00:04;29.63;;;13.13;;
31424;SDS011;18054;51.572;7.372;2022-07-23T01:02:32;28.75;;;12.50;;
31424;SDS011;18054;51.572;7.372;2022-07-23T01:05:00;24.85;;;12.45;;
31424;SDS011;18054;51.572;7.372;2022-07-23T01:07:29;19.17;;;11.52;;
31424;SDS011;18054;51.572;7.372;2022-07-23T01:09:56;44.97;;;14.82;;
31424;SDS011;18054;51.572;7.372;2022-07-23T01:12:25;30.17;;;12.88;;
31424;SDS011;18054;51.572;7.372;2022-07-23T01:14:53;28.13;;;13.15;;
31424;SDS011;18054;51.572;7.372;2022-07-23T01:17:21;29.65;;;14.07;;
31424;SDS011;18054;51.572;7.372;2022-07-23T01:19:49;26.98;;;12.32;;
31424;SDS011;18054;51.572;7.372;2022-07-23T01:22:17;23.05;;;12.13;;
31424;SDS011;18054;51.572;7.372;2022-07-23T01:24:47;30.63;;;13.25;;
31424;SDS011;18054;51.572;7.372;2022-07-23T01:27:19;26.48;;;12.07;;
31424;SDS011;18054;51.572;7.372;2022-07-23T01:29:49;26.95;;;12.63;;
31424;SDS011;18054;51.572;7.372;2022-07-23T01:32:19;34.33;;;14.10;;
31424;SDS011;18054;51.572;7.372;2022-07-23T01:34:47;32.70;;;14.70;;
31424;SDS011;18054;51.572;7.372;2022-07-23T01:37:15;22.70;;;11.85;;
31424;SDS011;18054;51.572;7.372;2022-07-23T01:39:43;37.58;;;14.48;;
31424;SDS011;18054;51.572;7.372;2022-07-23T01:42:13;28.27;;;13.65;;
31424;SDS011;18054;51.572;7.372;2022-07-23T01:44:40;24.67;;;12.80;;
31424;SDS011;18054;51.572;7.372;2022-07-23T01:47:13;24.38;;;12.43;;
31424;SDS011;18054;51.572;7.372;2022-07-23T01:49:41;35.03;;;13.35;;
31424;SDS011;18054;51.572;7.372;2022-07-23T01:52:26;54.55;;;13.25;;
31424;SDS011;18054;51.572;7.372;2022-07-23T01:54:53;42.22;;;12.68;;
31424;SDS011;18054;51.572;7.372;2022-07-23T01:57:22;33.00;;;13.95;;
31424;SDS011;18054;51.572;7.372;2022-07-23T01:59:49;25.65;;;13.13;;
31424;SDS011;18054;51.572;7.372;2022-07-23T02:02:19;28.05;;;12.88;;
31424;SDS011;18054;51.572;7.372;2022-07-23T02:04:47;30.55;;;13.98;;
31424;SDS011;18054;51.572;7.372;2022-07-23T02:07:16;25.55;;;13.23;;
31424;SDS011;18054;51.572;7.372;2022-07-23T02:09:44;20.25;;;12.07;;
31424;SDS011;18054;51.572;7.372;2022-07-23T02:12:11;32.05;;;14.30;;
31424;SDS011;18054;51.572;7.372;2022-07-23T02:14:40;27.85;;;13.25;;
31424;SDS011;18054;51.572;7.372;2022-07-23T02:17:09;25.73;;;13.15;;
31424;SDS011;18054;51.572;7.372;2022-07-23T02:19:36;29.02;;;13.25;;
31424;SDS011;18054;51.572;7.372;2022-07-23T02:22:04;24.10;;;13.20;;
31424;SDS011;18054;51.572;7.372;2022-07-23T02:24:31;25.52;;;13.02;;
31424;SDS011;18054;51.572;7.372;2022-07-23T02:26:59;29.25;;;12.57;;
31424;SDS011;18054;51.572;7.372;2022-07-23T02:29:26;24.75;;;12.07;;
31424;SDS011;18054;51.572;7.372;2022-07-23T02:31:55;27.05;;;13.88;;
31424;SDS011;18054;51.572;7.372;2022-07-23T02:34:22;35.50;;;13.60;;
31424;SDS011;18054;51.572;7.372;2022-07-23T02:36:51;28.15;;;13.90;;
31424;SDS011;18054;51.572;7.372;2022-07-23T02:39:19;39.55;;;14.73;;
31424;SDS011;18054;51.572;7.372;2022-07-23T02:41:47;28.45;;;12.82;;
31424;SDS011;18054;51.572;7.372;2022-07-23T02:44:15;25.67;;;13.13;;
31424;SDS011;18054;51.572;7.372;2022-07-23T02:46:47;45.85;;;19.15;;
31424;SDS011;18054;51.572;7.372;2022-07-23T02:49:17;25.13;;;13.25;;
31424;SDS011;18054;51.572;7.372;2022-07-23T02:51:46;38.58;;;15.65;;
31424;SDS011;18054;51.572;7.372;2022-07-23T02:54:15;22.10;;;13.43;;
31424;SDS011;18054;51.572;7.372;2022-07-23T02:56:42;30.75;;;14.93;;
31424;SDS011;18054;51.572;7.372;2022-07-23T02:59:10;30.40;;;14.23;;
31424;SDS011;18054;51.572;7.372;2022-07-23T03:01:38;29.63;;;14.70;;
31424;SDS011;18054;51.572;7.372;2022-07-23T03:04:06;40.42;;;16.15;;
31424;SDS011;18054;51.572;7.372;2022-07-23T03:06:35;33.60;;;14.75;;
31424;SDS011;18054;51.572;7.372;2022-07-23T03:09:03;28.90;;;13.68;;
31424;SDS011;18054;51.572;7.372;2022-07-23T03:11:31;34.88;;;14.73;;
31424;SDS011;18054;51.572;7.372;2022-07-23T03:13:58;33.85;;;14.40;;
31424;SDS011;18054;51.572;7.372;2022-07-23T03:16:26;28.45;;;15.05;;
31424;SDS011;18054;51.572;7.372;2022-07-23T03:18:53;43.22;;;16.85;;
31424;SDS011;18054;51.572;7.372;2022-07-23T03:21:21;40.28;;;15.95;;
31424;SDS011;18054;51.572;7.372;2022-07-23T03:23:49;25.23;;;14.13;;
31424;SDS011;18054;51.572;7.372;2022-07-23T03:26:17;33.47;;;16.23;;
31424;SDS011;18054;51.572;7.372;2022-07-23T03:28:45;34.80;;;16.35;;
31424;SDS011;18054;51.572;7.372;2022-07-23T03:31:12;46.97;;;15.80;;
31424;SDS011;18054;51.572;7.372;2022-07-23T03:33:40;35.95;;;15.88;;
31424;SDS011;18054;51.572;7.372;2022-07-23T03:36:08;40.85;;;16.58;;
31424;SDS011;18054;51.572;7.372;2022-07-23T03:38:39;32.45;;;16.00;;
31424;SDS011;18054;51.572;7.372;2022-07-23T03:41:09;26.38;;;15.73;;
31424;SDS011;18054;51.572;7.372;2022-07-23T03:43:36;31.20;;;16.25;;
31424;SDS011;18054;51.572;7.372;2022-07-23T03:46:04;25.55;;;14.05;;
31424;SDS011;18054;51.572;7.372;2022-07-23T03:48:31;32.00;;;14.52;;
31424;SDS011;18054;51.572;7.372;2022-07-23T03:50:59;35.67;;;16.23;;
31424;SDS011;18054;51.572;7.372;2022-07-23T03:53:26;40.10;;;16.92;;
31424;SDS011;18054;51.572;7.372;2022-07-23T03:55:54;40.30;;;17.52;;
31424;SDS011;18054;51.572;7.372;2022-07-23T03:58:23;34.63;;;15.57;;
31424;SDS011;18054;51.572;7.372;2022-07-23T04:00:51;35.85;;;15.75;;
31424;SDS011;18054;51.572;7.372;2022-07-23T04:03:19;38.55;;;16.05;;
31424;SDS011;18054;51.572;7.372;2022-07-23T04:05:47;31.90;;;15.57;;
31424;SDS011;18054;51.572;7.372;2022-07-23T04:08:15;28.95;;;15.85;;
31424;SDS011;18054;51.572;7.372;2022-07-23T04:10:47;26.55;;;15.13;;
31424;SDS011;18054;51.572;7.372;2022-07-23T04:13:15;48.17;;;16.48;;
31424;SDS011;18054;51.572;7.372;2022-07-23T04:15:44;42.72;;;16.27;;
31424;SDS011;18054;51.572;7.372;2022-07-23T04:18:11;28.23;;;14.52;;
31424;SDS011;18054;51.572;7.372;2022-07-23T04:20:48;42.38;;;17.77;;
31424;SDS011;18054;51.572;7.372;2022-07-23T04:23:15;30.17;;;16.95;;
31424;SDS011;18054;51.572;7.372;2022-07-23T04:25:45;30.05;;;15.48;;
31424;SDS011;18054;51.572;7.372;2022-07-23T04:28:13;31.67;;;14.55;;
31424;SDS011;18054;51.572;7.372;2022-07-23T04:30:41;29.10;;;15.57;;
31424;SDS011;18054;51.572;7.372;2022-07-23T04:33:11;24.98;;;13.77;;
31424;SDS011;18054;51.572;7.372;2022-07-23T04:35:39;33.22;;;14.45;;
31424;SDS011;18054;51.572;7.372;2022-07-23T04:38:17;34.53;;;14.90;;
31424;SDS011;18054;51.572;7.372;2022-07-23T04:40:47;29.00;;;15.88;;
31424;SDS011;18054;51.572;7.372;2022-07-23T04:43:15;31.77;;;14.93;;
31424;SDS011;18054;51.572;7.372;2022-07-23T04:45:45;43.80;;;17.58;;
31424;SDS011;18054;51.572;7.372;2022-07-23T04:48:14;27.50;;;15.48;;
31424;SDS011;18054;51.572;7.372;2022-07-23T04:50:42;31.30;;;15.57;;
31424;SDS011;18054;51.572;7.372;2022-07-23T04:53:21;34.85;;;17.52;;
31424;SDS011;18054;51.572;7.372;2022-07-23T04:55:51;39.30;;;17.63;;
31424;SDS011;18054;51.572;7.372;2022-07-23T04:58:19;47.30;;;18.27;;
31424;SDS011;18054;51.572;7.372;2022-07-23T05:00:46;47.90;;;18.88;;
31424;SDS011;18054;51.572;7.372;2022-07-23T05:03:16;33.88;;;16.40;;
31424;SDS011;18054;51.572;7.372;2022-07-23T05:05:46;47.00;;;18.27;;
31424;SDS011;18054;51.572;7.372;2022-07-23T05:08:16;38.88;;;17.50;;
31424;SDS011;18054;51.572;7.372;2022-07-23T05:10:48;48.60;;;19.20;;
31424;SDS011;18054;51.572;7.372;2022-07-23T05:13:17;42.40;;;18.67;;
31424;SDS011;18054;51.572;7.372;2022-07-23T05:15:44;34.05;;;17.55;;
31424;SDS011;18054;51.572;7.372;2022-07-23T05:18:12;28.48;;;16.70;;
31424;SDS011;18054;51.572;7.372;2022-07-23T05:23:10;42.72;;;19.75;;
31424;SDS011;18054;51.572;7.372;2022-07-23T05:25:37;30.38;;;17.33;;
31424;SDS011;18054;51.572;7.372;2022-07-23T05:30:33;31.75;;;17.25;;
31424;SDS011;18054;51.572;7.372;2022-07-23T05:33:04;51.90;;;20.08;;
31424;SDS011;18054;51.572;7.372;2022-07-23T05:35:33;32.88;;;17.65;;
31424;SDS011;18054;51.572;7.372;2022-07-23T05:38:40;33.38;;;17.25;;
31424;SDS011;18054;51.572;7.372;2022-07-23T05:41:08;38.70;;;18.15;;
31424;SDS011;18054;51.572;7.372;2022-07-23T05:43:36;33.03;;;17.00;;
31424;SDS011;18054;51.572;7.372;2022-07-23T05:46:09;30.58;;;16.33;;
31424;SDS011;18054;51.572;7.372;2022-07-23T05:48:39;23.23;;;16.20;;
31424;SDS011;18054;51.572;7.372;2022-07-23T05:51:30;25.70;;;15.07;;
31424;SDS011;18054;51.572;7.372;2022-07-23T05:54:00;27.63;;;15.77;;
31424;SDS011;18054;51.572;7.372;2022-07-23T05:56:32;27.88;;;15.30;;
31424;SDS011;18054;51.572;7.372;2022-07-23T05:58:59;30.80;;;16.33;;
31424;SDS011;18054;51.572;7.372;2022-07-23T06:01:28;29.55;;;15.95;;
31424;SDS011;18054;51.572;7.372;2022-07-23T06:04:05;30.75;;;16.52;;
31424;SDS011;18054;51.572;7.372;2022-07-23T06:06:36;25.45;;;15.38;;
31424;SDS011;18054;51.572;7.372;2022-07-23T06:09:06;27.83;;;15.73;;
31424;SDS011;18054;51.572;7.372;2022-07-23T06:11:34;27.27;;;15.75;;
31424;SDS011;18054;51.572;7.372;2022-07-23T06:14:01;29.15;;;17.05;;
31424;SDS011;18054;51.572;7.372;2022-07-23T06:16:49;27.63;;;14.80;;
31424;SDS011;18054;51.572;7.372;2022-07-23T06:19:17;30.45;;;16.75;;
31424;SDS011;18054;51.572;7.372;2022-07-23T06:21:45;31.65;;;15.10;;
31424;SDS011;18054;51.572;7.372;2022-07-23T06:24:17;41.63;;;17.40;;
31424;SDS011;18054;51.572;7.372;2022-07-23T06:26:44;29.52;;;15.63;;
31424;SDS011;18054;51.572;7.372;2022-07-23T06:29:13;29.88;;;17.42;;
31424;SDS011;18054;51.572;7.372;2022-07-23T06:34:08;29.67;;;18.02;;
31424;SDS011;18054;51.572;7.372;2022-07-23T06:36:36;31.17;;;16.30;;
31424;SDS011;18054;51.572;7.372;2022-07-23T06:39:05;32.15;;;17.85;;
31424;SDS011;18054;51.572;7.372;2022-07-23T06:41:35;27.63;;;15.63;;
31424;SDS011;18054;51.572;7.372;2022-07-23T06:44:03;39.83;;;20.65;;
31424;SDS011;18054;51.572;7.372;2022-07-23T06:46:33;29.48;;;19.08;;
31424;SDS011;18054;51.572;7.372;2022-07-23T06:51:31;38.92;;;20.88;;
31424;SDS011;18054;51.572;7.372;2022-07-23T06:54:00;36.55;;;19.63;;
31424;SDS011;18054;51.572;7.372;2022-07-23T06:56:27;33.03;;;20.45;;
31424;SDS011;18054;51.572;7.372;2022-07-23T06:58:56;46.80;;;22.48;;
31424;SDS011;18054;51.572;7.372;2022-07-23T07:01:25;42.30;;;21.55;;
31424;SDS011;18054;51.572;7.372;2022-07-23T07:03:53;40.95;;;24.45;;
31424;SDS011;18054;51.572;7.372;2022-07-23T07:06:20;41.17;;;21.70;;
31424;SDS011;18054;51.572;7.372;2022-07-23T07:08:48;40.97;;;19.23;;
31424;SDS011;18054;51.572;7.372;2022-07-23T07:11:15;32.85;;;19.85;;
31424;SDS011;18054;51.572;7.372;2022-07-23T07:13:43;43.92;;;21.10;;
31424;SDS011;18054;51.572;7.372;2022-07-23T07:16:12;40.58;;;22.65;;
31424;SDS011;18054;51.572;7.372;2022-07-23T07:18:39;38.88;;;21.95;;
31424;SDS011;18054;51.572;7.372;2022-07-23T07:21:07;48.95;;;25.05;;
31424;SDS011;18054;51.572;7.372;2022-07-23T07:23:34;39.08;;;21.52;;
31424;SDS011;18054;51.572;7.372;2022-07-23T07:26:02;35.92;;;20.67;;
31424;SDS011;18054;51.572;7.372;2022-07-23T07:28:29;40.47;;;20.25;;
31424;SDS011;18054;51.572;7.372;2022-07-23T07:30:56;34.65;;;17.88;;
31424;SDS011;18054;51.572;7.372;2022-07-23T07:35:53;32.58;;;18.73;;
31424;SDS011;18054;51.572;7.372;2022-07-23T07:38:20;29.70;;;17.35;;
31424;SDS011;18054;51.572;7.372;2022-07-23T07:40:48;33.40;;;15.07;;
31424;SDS011;18054;51.572;7.372;2022-07-23T07:43:15;28.20;;;15.20;;
31424;SDS011;18054;51.572;7.372;2022-07-23T07:45:43;27.13;;;13.82;;
31424;SDS011;18054;51.572;7.372;2022-07-23T07:48:10;33.72;;;15.60;;
31424;SDS011;18054;51.572;7.372;2022-07-23T07:50:38;23.80;;;13.50;;
31424;SDS011;18054;51.572;7.372;2022-07-23T07:53:06;23.92;;;12.32;;
31424;SDS011;18054;51.572;7.372;2022-07-23T07:55:35;21.63;;;13.65;;
31424;SDS011;18054;51.572;7.372;2022-07-23T07:58:03;26.50;;;13.98;;
31424;SDS011;18054;51.572;7.372;2022-07-23T08:00:31;19.63;;;12.27;;
31424;SDS011;18054;51.572;7.372;2022-07-23T08:02:59;19.63;;;10.48;;
31424;SDS011;18054;51.572;7.372;2022-07-23T08:05:29;19.02;;;11.18;;
31424;SDS011;18054;51.572;7.372;2022-07-23T08:07:57;20.75;;;9.90;;
31424;SDS011;18054;51.572;7.372;2022-07-23T08:10:27;19.00;;;11.25;;
31424;SDS011;18054;51.572;7.372;2022-07-23T08:12:55;18.00;;;10.32;;
31424;SDS011;18054;51.572;7.372;2022-07-23T08:15:24;21.88;;;10.48;;
31424;SDS011;18054;51.572;7.372;2022-07-23T08:17:51;14.32;;;8.43;;
31424;SDS011;18054;51.572;7.372;2022-07-23T08:20:19;15.75;;;9.82;;
31424;SDS011;18054;51.572;7.372;2022-07-23T08:22:49;18.85;;;8.35;;
31424;SDS011;18054;51.572;7.372;2022-07-23T08:25:19;18.60;;;8.20;;
31424;SDS011;18054;51.572;7.372;2022-07-23T08:27:48;11.57;;;7.65;;
31424;SDS011;18054;51.572;7.372;2022-07-23T08:30:16;15.20;;;8.18;;
31424;SDS011;18054;51.572;7.372;2022-07-23T08:35:11;15.95;;;8.02;;
31424;SDS011;18054;51.572;7.372;2022-07-23T08:37:38;15.65;;;6.07;;
31424;SDS011;18054;51.572;7.372;2022-07-23T08:40:06;12.18;;;5.18;;
31424;SDS011;18054;51.572;7.372;2022-07-23T08:42:34;11.65;;;5.93;;
31424;SDS011;18054;51.572;7.372;2022-07-23T08:45:04;12.40;;;5.43;;
31424;SDS011;18054;51.572;7.372;2022-07-23T08:47:34;12.10;;;5.43;;
31424;SDS011;18054;51.572;7.372;2022-07-23T08:50:02;15.02;;;5.63;;
31424;SDS011;18054;51.572;7.372;2022-07-23T08:52:30;13.15;;;5.32;;
31424;SDS011;18054;51.572;7.372;2022-07-23T08:54:58;10.75;;;4.78;;
31424;SDS011;18054;51.572;7.372;2022-07-23T08:59:53;8.93;;;4.32;;
31424;SDS011;18054;51.572;7.372;2022-07-23T09:02:22;18.35;;;5.43;;
31424;SDS011;18054;51.572;7.372;2022-07-23T09:04:49;17.20;;;4.65;;
31424;SDS011;18054;51.572;7.372;2022-07-23T09:07:17;16.55;;;4.72;;
31424;SDS011;18054;51.572;7.372;2022-07-23T09:09:44;10.95;;;4.20;;
31424;SDS011;18054;51.572;7.372;2022-07-23T09:12:12;12.52;;;4.82;;
31424;SDS011;18054;51.572;7.372;2022-07-23T09:14:40;10.65;;;4.88;;
31424;SDS011;18054;51.572;7.372;2022-07-23T09:17:08;12.85;;;4.47;;
31424;SDS011;18054;51.572;7.372;2022-07-23T09:19:38;12.52;;;3.97;;
31424;SDS011;18054;51.572;7.372;2022-07-23T09:22:19;10.55;;;5.85;;
31424;SDS011;18054;51.572;7.372;2022-07-23T09:25:06;11.63;;;4.10;;
31424;SDS011;18054;51.572;7.372;2022-07-23T09:27:51;10.48;;;4.07;;
31424;SDS011;18054;51.572;7.372;2022-07-23T09:30:21;11.18;;;4.90;;
31424;SDS011;18054;51.572;7.372;2022-07-23T09:33:09;10.80;;;5.78;;
31424;SDS011;18054;51.572;7.372;2022-07-23T09:38:05;12.52;;;5.70;;
31424;SDS011;18054;51.572;7.372;2022-07-23T09:40:32;7.63;;;5.03;;
31424;SDS011;18054;51.572;7.372;2022-07-23T09:43:00;8.13;;;4.45;;
31424;SDS011;18054;51.572;7.372;2022-07-23T09:45:27;11.25;;;4.30;;
31424;SDS011;18054;51.572;7.372;2022-07-23T09:47:59;8.07;;;4.07;;
31424;SDS011;18054;51.572;7.372;2022-07-23T09:50:36;9.75;;;3.90;;
31424;SDS011;18054;51.572;7.372;2022-07-23T09:53:05;9.75;;;5.68;;
31424;SDS011;18054;51.572;7.372;2022-07-23T09:55:34;9.52;;;6.25;;
31424;SDS011;18054;51.572;7.372;2022-07-23T09:58:03;10.98;;;6.13;;
31424;SDS011;18054;51.572;7.372;2022-07-23T10:00:31;9.20;;;5.47;;
31424;SDS011;18054;51.572;7.372;2022-07-23T10:02:59;8.50;;;4.97;;
31424;SDS011;18054;51.572;7.372;2022-07-23T10:05:27;8.85;;;5.32;;
31424;SDS011;18054;51.572;7.372;2022-07-23T10:07:56;8.70;;;5.00;;
31424;SDS011;18054;51.572;7.372;2022-07-23T10:10:49;12.70;;;5.07;;
31424;SDS011;18054;51.572;7.372;2022-07-23T10:13:39;10.35;;;4.63;;
31424;SDS011;18054;51.572;7.372;2022-07-23T10:16:18;9.73;;;4.70;;
31424;SDS011;18054;51.572;7.372;2022-07-23T10:18:52;7.97;;;4.70;;
31424;SDS011;18054;51.572;7.372;2022-07-23T10:21:21;11.23;;;4.80;;
31424;SDS011;18054;51.572;7.372;2022-07-23T10:23:57;12.25;;;5.40;;
31424;SDS011;18054;51.572;7.372;2022-07-23T10:26:29;10.07;;;4.47;;
31424;SDS011;18054;51.572;7.372;2022-07-23T10:29:06;9.35;;;4.20;;
31424;SDS011;18054;51.572;7.372;2022-07-23T10:31:40;9.77;;;4.10;;
31424;SDS011;18054;51.572;7.372;2022-07-23T10:34:29;7.95;;;4.40;;
31424;SDS011;18054;51.572;7.372;2022-07-23T10:37:01;10.77;;;3.78;;
31424;SDS011;18054;51.572;7.372;2022-07-23T10:39:32;10.50;;;4.22;;
31424;SDS011;18054;51.572;7.372;2022-07-23T10:42:08;11.32;;;3.90;;
31424;SDS011;18054;51.572;7.372;2022-07-23T10:44:40;6.75;;;3.42;;
31424;SDS011;18054;51.572;7.372;2022-07-23T10:47:09;8.90;;;4.10;;
31424;SDS011;18054;51.572;7.372;2022-07-23T10:49:49;8.07;;;3.17;;
31424;SDS011;18054;51.572;7.372;2022-07-23T10:52:23;9.55;;;4.22;;
31424;SDS011;18054;51.572;7.372;2022-07-23T10:54:52;12.68;;;4.50;;
31424;SDS011;18054;51.572;7.372;2022-07-23T10:57:23;8.40;;;4.05;;
31424;SDS011;18054;51.572;7.372;2022-07-23T11:00:14;6.32;;;3.38;;
31424;SDS011;18054;51.572;7.372;2022-07-23T11:02:43;7.45;;;3.47;;
31424;SDS011;18054;51.572;7.372;2022-07-23T11:05:12;6.35;;;3.22;;
31424;SDS011;18054;51.572;7.372;2022-07-23T11:10:34;9.57;;;2.55;;
31424;SDS011;18054;51.572;7.372;2022-07-23T11:24:10;7.65;;;2.92;;
31424;SDS011;18054;51.572;7.372;2022-07-23T11:26:42;7.50;;;2.85;;
31424;SDS011;18054;51.572;7.372;2022-07-23T11:32:00;6.40;;;2.72;;
31424;SDS011;18054;51.572;7.372;2022-07-23T11:34:28;5.35;;;3.15;;
31424;SDS011;18054;51.572;7.372;2022-07-23T11:36:56;7.53;;;2.85;;
31424;SDS011;18054;51.572;7.372;2022-07-23T11:39:26;7.43;;;2.63;;
31424;SDS011;18054;51.572;7.372;2022-07-23T11:41:54;6.45;;;2.83;;
31424;SDS011;18054;51.572;7.372;2022-07-23T11:49:16;7.35;;;2.17;;
31424;SDS011;18054;51.572;7.372;2022-07-23T11:54:10;7.60;;;2.08;;
31424;SDS011;18054;51.572;7.372;2022-07-23T11:59:07;9.65;;;2.13;;
31424;SDS011;18054;51.572;7.372;2022-07-23T12:01:35;7.03;;;2.40;;
31424;SDS011;18054;51.572;7.372;2022-07-23T12:06:35;5.88;;;2.17;;
31424;SDS011;18054;51.572;7.372;2022-07-23T12:09:06;8.15;;;2.00;;
31424;SDS011;18054;51.572;7.372;2022-07-23T12:11:34;3.63;;;1.30;;
31424;SDS011;18054;51.572;7.372;2022-07-23T12:14:01;6.63;;;1.92;;
31424;SDS011;18054;51.572;7.372;2022-07-23T12:16:30;6.43;;;1.88;;
31424;SDS011;18054;51.572;7.372;2022-07-23T12:18:58;6.55;;;1.45;;
31424;SDS011;18054;51.572;7.372;2022-07-23T12:21:25;4.85;;;1.85;;
31424;SDS011;18054;51.572;7.372;2022-07-23T12:24:04;5.05;;;1.38;;
31424;SDS011;18054;51.572;7.372;2022-07-23T12:26:32;7.40;;;2.17;;
31424;SDS011;18054;51.572;7.372;2022-07-23T12:29:01;9.32;;;1.80;;
31424;SDS011;18054;51.572;7.372;2022-07-23T12:31:28;5.57;;;1.50;;
31424;SDS011;18054;51.572;7.372;2022-07-23T12:33:57;3.70;;;1.40;;
31424;SDS011;18054;51.572;7.372;2022-07-23T12:36:36;3.08;;;1.42;;
31424;SDS011;18054;51.572;7.372;2022-07-23T12:39:05;5.57;;;1.38;;
31424;SDS011;18054;51.572;7.372;2022-07-23T12:44:15;8.68;;;1.55;;
31424;SDS011;18054;51.572;7.372;2022-07-23T12:46:42;6.05;;;1.50;;
31424;SDS011;18054;51.572;7.372;2022-07-23T12:49:25;7.32;;;1.75;;
31424;SDS011;18054;51.572;7.372;2022-07-23T12:51:55;4.07;;;1.50;;
31424;SDS011;18054;51.572;7.372;2022-07-23T12:54:26;7.00;;;1.35;;
31424;SDS011;18054;51.572;7.372;2022-07-23T12:56:54;4.97;;;1.23;;
31424;SDS011;18054;51.572;7.372;2022-07-23T12:59:21;7.65;;;1.15;;
31424;SDS011;18054;51.572;7.372;2022-07-23T13:01:53;4.13;;;1.35;;
31424;SDS011;18054;51.572;7.372;2022-07-23T13:04:23;3.60;;;1.30;;
31424;SDS011;18054;51.572;7.372;2022-07-23T13:06:52;4.72;;;1.23;;
31424;SDS011;18054;51.572;7.372;2022-07-23T13:09:21;6.82;;;1.38;;
31424;SDS011;18054;51.572;7.372;2022-07-23T13:11:51;4.85;;;1.42;;
31424;SDS011;18054;51.572;7.372;2022-07-23T13:14:22;6.00;;;1.35;;
31424;SDS011;18054;51.572;7.372;2022-07-23T13:16:52;5.68;;;1.63;;
31424;SDS011;18054;51.572;7.372;2022-07-23T13:19:22;5.30;;;1.98;;
31424;SDS011;18054;51.572;7.372;2022-07-23T13:21:53;7.63;;;2.35;;
31424;SDS011;18054;51.572;7.372;2022-07-23T13:24:21;6.45;;;1.15;;
31424;SDS011;18054;51.572;7.372;2022-07-23T13:26:49;3.38;;;1.30;;
31424;SDS011;18054;51.572;7.372;2022-07-23T13:29:18;3.78;;;1.70;;
31424;SDS011;18054;51.572;7.372;2022-07-23T13:31:45;8.00;;;1.58;;
31424;SDS011;18054;51.572;7.372;2022-07-23T13:34:14;4.07;;;1.50;;
31424;SDS011;18054;51.572;7.372;2022-07-23T13:36:41;4.95;;;1.80;;
31424;SDS011;18054;51.572;7.372;2022-07-23T13:39:11;4.75;;;1.50;;
31424;SDS011;18054;51.572;7.372;2022-07-23T13:41:38;4.70;;;2.13;;
31424;SDS011;18054;51.572;7.372;2022-07-23T13:44:14;5.32;;;1.70;;
31424;SDS011;18054;51.572;7.372;2022-07-23T13:46:42;5.28;;;1.63;;
31424;SDS011;18054;51.572;7.372;2022-07-23T13:49:09;7.03;;;1.77;;
31424;SDS011;18054;51.572;7.372;2022-07-23T13:51:39;2.95;;;1.55;;
31424;SDS011;18054;51.572;7.372;2022-07-23T13:54:07;3.50;;;1.35;;
31424;SDS011;18054;51.572;7.372;2022-07-23T13:56:36;4.68;;;1.40;;
31424;SDS011;18054;51.572;7.372;2022-07-23T13:59:04;4.35;;;1.73;;
31424;SDS011;18054;51.572;7.372;2022-07-23T14:01:32;6.43;;;1.60;;
31424;SDS011;18054;51.572;7.372;2022-07-23T14:04:15;5.85;;;1.52;;
31424;SDS011;18054;51.572;7.372;2022-07-23T14:06:43;3.70;;;1.50;;
31424;SDS011;18054;51.572;7.372;2022-07-23T14:09:18;4.38;;;1.83;;
31424;SDS011;18054;51.572;7.372;2022-07-23T14:14:14;3.85;;;1.40;;
31424;SDS011;18054;51.572;7.372;2022-07-23T14:16:41;3.05;;;1.50;;
31424;SDS011;18054;51.572;7.372;2022-07-23T14:19:09;9.70;;;2.00;;
31424;SDS011;18054;51.572;7.372;2022-07-23T14:21:37;4.72;;;1.77;;
31424;SDS011;18054;51.572;7.372;2022-07-23T14:24:05;4.45;;;1.70;;
31424;SDS011;18054;51.572;7.372;2022-07-23T14:26:32;5.07;;;1.90;;
31424;SDS011;18054;51.572;7.372;2022-07-23T14:29:00;3.95;;;1.40;;
31424;SDS011;18054;51.572;7.372;2022-07-23T14:31:30;7.97;;;1.83;;
31424;SDS011;18054;51.572;7.372;2022-07-23T14:33:57;6.03;;;2.10;;
31424;SDS011;18054;51.572;7.372;2022-07-23T14:36:25;16.05;;;1.85;;
31424;SDS011;18054;51.572;7.372;2022-07-23T14:38:54;2.90;;;1.30;;
31424;SDS011;18054;51.572;7.372;2022-07-23T14:41:22;3.75;;;1.45;;
31424;SDS011;18054;51.572;7.372;2022-07-23T14:43:53;7.35;;;2.25;;
31424;SDS011;18054;51.572;7.372;2022-07-23T14:48:49;4.53;;;1.85;;
31424;SDS011;18054;51.572;7.372;2022-07-23T14:51:17;4.68;;;1.70;;
31424;SDS011;18054;51.572;7.372;2022-07-23T14:53:45;3.38;;;1.70;;
31424;SDS011;18054;51.572;7.372;2022-07-23T14:58:40;7.45;;;1.83;;
31424;SDS011;18054;51.572;7.372;2022-07-23T15:01:08;6.22;;;2.20;;
31424;SDS011;18054;51.572;7.372;2022-07-23T15:03:37;5.20;;;2.05;;
31424;SDS011;18054;51.572;7.372;2022-07-23T15:06:09;7.40;;;2.08;;
31424;SDS011;18054;51.572;7.372;2022-07-23T15:08:38;5.35;;;1.95;;
31424;SDS011;18054;51.572;7.372;2022-07-23T15:11:05;5.63;;;1.98;;
31424;SDS011;18054;51.572;7.372;2022-07-23T15:13:35;10.68;;;2.10;;
31424;SDS011;18054;51.572;7.372;2022-07-23T15:16:03;5.82;;;2.25;;
31424;SDS011;18054;51.572;7.372;2022-07-23T15:18:35;7.97;;;1.88;;
31424;SDS011;18054;51.572;7.372;2022-07-23T15:21:03;4.45;;;1.83;;
31424;SDS011;18054;51.572;7.372;2022-07-23T15:28:26;6.43;;;1.70;;
31424;SDS011;18054;51.572;7.372;2022-07-23T15:30:54;9.35;;;2.10;;
31424;SDS011;18054;51.572;7.372;2022-07-23T15:33:22;5.57;;;2.03;;
31424;SDS011;18054;51.572;7.372;2022-07-23T15:35:51;3.50;;;1.88;;
31424;SDS011;18054;51.572;7.372;2022-07-23T15:38:21;6.38;;;2.17;;
31424;SDS011;18054;51.572;7.372;2022-07-23T15:40:51;4.85;;;2.13;;
31424;SDS011;18054;51.572;7.372;2022-07-23T15:45:47;5.75;;;2.17;;
31424;SDS011;18054;51.572;7.372;2022-07-23T15:48:15;8.40;;;2.83;;
31424;SDS011;18054;51.572;7.372;2022-07-23T15:53:11;5.05;;;2.15;;
31424;SDS011;18054;51.572;7.372;2022-07-23T15:55:41;8.30;;;1.92;;